sensor_id;sensor_type;location;lat;lon;timestamp;temperature;humidity
77247;SHT35;66279;42.820;23.374;2023-03-31T07:32:00;14.98;51.38
77247;SHT35;66279;42.820;23.374;2023-03-31T07:34:25;15.42;50.84
77247;SHT35;66279;42.820;23.374;2023-03-31T07:36:54;15.61;49.66
77247;SHT35;66279;42.820;23.374;2023-03-31T07:39:20;15.70;47.31
77247;SHT35;66279;42.820;23.374;2023-03-31T07:41:45;15.90;49.84
77247;SHT35;66279;42.820;23.374;2023-03-31T07:44:10;15.51;45.99
77247;SHT35;66279;42.820;23.374;2023-03-31T07:46:36;15.59;49.32
77247;SHT35;66279;42.820;23.374;2023-03-31T07:49:02;15.72;48.63
77247;SHT35;66279;42.820;23.374;2023-03-31T07:51:27;15.61;48.43
77247;SHT35;66279;42.820;23.374;2023-03-31T07:53:53;15.75;48.28
77247;SHT35;66279;42.820;23.374;2023-03-31T07:56:21;15.89;46.79
77247;SHT35;66279;42.820;23.374;2023-03-31T07:58:46;16.00;46.29
77247;SHT35;66279;42.820;23.374;2023-03-31T08:01:16;16.34;46.42
77247;SHT35;66279;42.820;23.374;2023-03-31T08:03:44;16.47;45.67
77247;SHT35;66279;42.820;23.374;2023-03-31T08:06:10;16.51;46.10
77247;SHT35;66279;42.820;23.374;2023-03-31T08:08:36;16.71;46.68
77247;SHT35;66279;42.820;23.374;2023-03-31T08:11:03;16.92;45.90
77247;SHT35;66279;42.820;23.374;2023-03-31T08:13:29;17.18;44.99
77247;SHT35;66279;42.820;23.374;2023-03-31T08:15:54;17.84;44.30
77247;SHT35;66279;42.820;23.374;2023-03-31T08:18:20;17.91;43.58
77247;SHT35;66279;42.820;23.374;2023-03-31T08:20:45;17.87;43.12
77247;SHT35;66279;42.820;23.374;2023-03-31T08:23:14;18.26;43.94
77247;SHT35;66279;42.820;23.374;2023-03-31T08:25:40;17.55;42.26
77247;SHT35;66279;42.820;23.374;2023-03-31T08:28:06;17.95;43.53
77247;SHT35;66279;42.820;23.374;2023-03-31T08:30:37;18.25;42.92
77247;SHT35;66279;42.820;23.374;2023-03-31T08:33:03;18.74;42.13
77247;SHT35;66279;42.820;23.374;2023-03-31T08:35:29;18.77;41.36
77247;SHT35;66279;42.820;23.374;2023-03-31T08:37:54;19.03;41.34
77247;SHT35;66279;42.820;23.374;2023-03-31T08:40:23;19.03;40.63
77247;SHT35;66279;42.820;23.374;2023-03-31T08:42:52;19.06;40.66
77247;SHT35;66279;42.820;23.374;2023-03-31T08:45:31;18.67;40.53
77247;SHT35;66279;42.820;23.374;2023-03-31T08:48:01;18.38;40.93
77247;SHT35;66279;42.820;23.374;2023-03-31T08:50:33;18.33;41.87
77247;SHT35;66279;42.820;23.374;2023-03-31T09:01:29;18.01;41.27
77247;SHT35;66279;42.820;23.374;2023-03-31T09:09:43;19.52;39.33
77247;SHT35;66279;42.820;23.374;2023-03-31T09:12:20;19.52;39.86
77247;SHT35;66279;42.820;23.374;2023-03-31T09:14:56;19.65;38.93
77247;SHT35;66279;42.820;23.374;2023-03-31T09:17:30;19.14;37.48
77247;SHT35;66279;42.820;23.374;2023-03-31T09:23:32;18.53;38.71
77247;SHT35;66279;42.820;23.374;2023-03-31T09:25:50;18.52;39.09
77247;SHT35;66279;42.820;23.374;2023-03-31T09:28:22;18.18;39.15
77247;SHT35;66279;42.820;23.374;2023-03-31T09:30:50;18.11;39.32
77247;SHT35;66279;42.820;23.374;2023-03-31T09:33:27;18.25;39.90
77247;SHT35;66279;42.820;23.374;2023-03-31T09:35:57;18.51;39.52
77247;SHT35;66279;42.820;23.374;2023-03-31T09:38:23;18.72;39.34
77247;SHT35;66279;42.820;23.374;2023-03-31T09:40:55;18.86;38.67
77247;SHT35;66279;42.820;23.374;2023-03-31T09:43:23;18.52;38.71
77247;SHT35;66279;42.820;23.374;2023-03-31T09:45:50;18.00;38.91
77247;SHT35;66279;42.820;23.374;2023-03-31T09:48:19;18.11;39.70
77247;SHT35;66279;42.820;23.374;2023-03-31T09:50:54;17.78;38.88
77247;SHT35;66279;42.820;23.374;2023-03-31T09:53:42;17.78;39.05
77247;SHT35;66279;42.820;23.374;2023-03-31T09:56:10;18.06;39.45
77247;SHT35;66279;42.820;23.374;2023-03-31T09:58:44;18.36;38.74
77247;SHT35;66279;42.820;23.374;2023-03-31T10:01:11;18.28;39.32
77247;SHT35;66279;42.820;23.374;2023-03-31T10:03:49;18.55;38.59
77247;SHT35;66279;42.820;23.374;2023-03-31T10:06:16;18.77;37.84
77247;SHT35;66279;42.820;23.374;2023-03-31T10:08:55;18.55;37.24
77247;SHT35;66279;42.820;23.374;2023-03-31T10:11:22;18.97;37.58
77247;SHT35;66279;42.820;23.374;2023-03-31T10:18:54;18.49;37.49
77247;SHT35;66279;42.820;23.374;2023-03-31T10:21:22;18.33;39.70
77247;SHT35;66279;42.820;23.374;2023-03-31T10:23:49;18.45;38.04
77247;SHT35;66279;42.820;23.374;2023-03-31T10:26:18;18.62;38.21
77247;SHT35;66279;42.820;23.374;2023-03-31T10:28:47;18.84;37.69
77247;SHT35;66279;42.820;23.374;2023-03-31T10:31:14;19.22;37.94
77247;SHT35;66279;42.820;23.374;2023-03-31T10:33:43;19.44;36.82
77247;SHT35;66279;42.820;23.374;2023-03-31T10:36:22;19.79;36.96
77247;SHT35;66279;42.820;23.374;2023-03-31T10:38:50;20.36;35.40
77247;SHT35;66279;42.820;23.374;2023-03-31T10:41:25;20.16;35.41
77247;SHT35;66279;42.820;23.374;2023-03-31T10:43:52;20.34;35.40
77247;SHT35;66279;42.820;23.374;2023-03-31T10:46:19;20.37;35.71
77247;SHT35;66279;42.820;23.374;2023-03-31T10:48:45;20.99;36.72
77247;SHT35;66279;42.820;23.374;2023-03-31T10:53:47;20.27;35.10
77247;SHT35;66279;42.820;23.374;2023-03-31T10:56:42;20.26;36.03
77247;SHT35;66279;42.820;23.374;2023-03-31T11:04:51;19.63;36.14
77247;SHT35;66279;42.820;23.374;2023-03-31T11:15:57;21.19;33.97
77247;SHT35;66279;42.820;23.374;2023-03-31T11:18:33;21.09;33.26
77247;SHT35;66279;42.820;23.374;2023-03-31T11:29:37;19.86;35.62
77247;SHT35;66279;42.820;23.374;2023-03-31T11:40:12;19.27;36.65
77247;SHT35;66279;42.820;23.374;2023-03-31T11:42:49;18.99;36.93
77247;SHT35;66279;42.820;23.374;2023-03-31T11:45:36;18.80;38.15
77247;SHT35;66279;42.820;23.374;2023-03-31T11:48:09;19.00;37.07
77247;SHT35;66279;42.820;23.374;2023-03-31T11:50:40;19.15;36.50
77247;SHT35;66279;42.820;23.374;2023-03-31T11:53:15;19.69;37.02
77247;SHT35;66279;42.820;23.374;2023-03-31T11:55:47;20.09;34.93
77247;SHT35;66279;42.820;23.374;2023-03-31T11:58:28;20.41;35.23
77247;SHT35;66279;42.820;23.374;2023-03-31T12:06:04;20.23;34.99
77247;SHT35;66279;42.820;23.374;2023-03-31T12:11:30;19.31;36.22
77247;SHT35;66279;42.820;23.374;2023-03-31T12:16:39;19.17;36.32
77247;SHT35;66279;42.820;23.374;2023-03-31T12:19:16;19.36;36.49
77247;SHT35;66279;42.820;23.374;2023-03-31T12:21:51;19.52;35.69
77247;SHT35;66279;42.820;23.374;2023-03-31T12:24:19;19.76;36.28
77247;SHT35;66279;42.820;23.374;2023-03-31T12:29:38;20.13;36.26
77247;SHT35;66279;42.820;23.374;2023-03-31T12:32:14;20.01;35.35
77247;SHT35;66279;42.820;23.374;2023-03-31T12:34:50;19.87;35.59
77247;SHT35;66279;42.820;23.374;2023-03-31T12:47:49;19.42;36.46
77247;SHT35;66279;42.820;23.374;2023-03-31T12:55:46;19.27;37.24
77247;SHT35;66279;42.820;23.374;2023-03-31T13:01:27;19.28;36.23
77247;SHT35;66279;42.820;23.374;2023-03-31T13:04:16;18.83;37.11
77247;SHT35;66279;42.820;23.374;2023-03-31T13:06:49;18.48;37.78
77247;SHT35;66279;42.820;23.374;2023-03-31T13:11:44;18.19;38.09
77247;SHT35;66279;42.820;23.374;2023-03-31T13:14:16;18.33;38.74
77247;SHT35;66279;42.820;23.374;2023-03-31T13:16:44;18.53;37.65
77247;SHT35;66279;42.820;23.374;2023-03-31T13:19:32;18.89;37.24
77247;SHT35;66279;42.820;23.374;2023-03-31T13:22:00;18.93;37.43
77247;SHT35;66279;42.820;23.374;2023-03-31T13:24:27;18.99;37.29
77247;SHT35;66279;42.820;23.374;2023-03-31T13:26:56;19.44;36.02
77247;SHT35;66279;42.820;23.374;2023-03-31T13:29:43;19.93;36.82
77247;SHT35;66279;42.820;23.374;2023-03-31T13:32:21;20.20;36.09
77247;SHT35;66279;42.820;23.374;2023-03-31T13:46:48;20.98;33.80
77247;SHT35;66279;42.820;23.374;2023-03-31T13:49:32;20.58;32.82
77247;SHT35;66279;42.820;23.374;2023-03-31T13:52:09;20.50;34.22
77247;SHT35;66279;42.820;23.374;2023-03-31T14:03:16;20.33;35.32
77247;SHT35;66279;42.820;23.374;2023-03-31T14:05:52;20.26;35.24
77247;SHT35;66279;42.820;23.374;2023-03-31T14:08:38;20.52;35.10
77247;SHT35;66279;42.820;23.374;2023-03-31T14:11:25;20.55;34.20
77247;SHT35;66279;42.820;23.374;2023-03-31T14:14:14;20.50;34.17
77247;SHT35;66279;42.820;23.374;2023-03-31T14:16:47;20.47;34.75
77247;SHT35;66279;42.820;23.374;2023-03-31T14:19:32;20.55;35.24
77247;SHT35;66279;42.820;23.374;2023-03-31T14:22:09;20.23;34.81
77247;SHT35;66279;42.820;23.374;2023-03-31T14:27:18;19.87;35.64
77247;SHT35;66279;42.820;23.374;2023-03-31T14:30:04;20.20;35.22
77247;SHT35;66279;42.820;23.374;2023-03-31T14:32:47;20.61;35.85
77247;SHT35;66279;42.820;23.374;2023-03-31T14:35:25;20.85;35.63
77247;SHT35;66279;42.820;23.374;2023-03-31T14:37:54;21.09;33.62
77247;SHT35;66279;42.820;23.374;2023-03-31T14:40:21;20.92;34.16
77247;SHT35;66279;42.820;23.374;2023-03-31T14:42:47;20.78;34.48
77247;SHT35;66279;42.820;23.374;2023-03-31T14:45:17;20.69;33.92
77247;SHT35;66279;42.820;23.374;2023-03-31T14:47:53;20.89;34.21
77247;SHT35;66279;42.820;23.374;2023-03-31T14:50:19;20.99;33.75
77247;SHT35;66279;42.820;23.374;2023-03-31T14:52:50;21.16;33.73
77247;SHT35;66279;42.820;23.374;2023-03-31T14:55:20;21.12;33.13
77247;SHT35;66279;42.820;23.374;2023-03-31T14:57:48;21.03;33.49
77247;SHT35;66279;42.820;23.374;2023-03-31T15:00:19;20.84;33.63
77247;SHT35;66279;42.820;23.374;2023-03-31T15:02:48;20.82;34.31
77247;SHT35;66279;42.820;23.374;2023-03-31T15:05:24;20.59;33.49
77247;SHT35;66279;42.820;23.374;2023-03-31T15:07:56;20.37;34.56
77247;SHT35;66279;42.820;23.374;2023-03-31T15:10:22;20.54;35.40
77247;SHT35;66279;42.820;23.374;2023-03-31T15:12:49;20.89;34.42
77247;SHT35;66279;42.820;23.374;2023-03-31T15:15:17;20.94;34.16
77247;SHT35;66279;42.820;23.374;2023-03-31T15:17:45;21.19;34.72
77247;SHT35;66279;42.820;23.374;2023-03-31T15:20:24;21.29;34.21
77247;SHT35;66279;42.820;23.374;2023-03-31T15:22:49;21.15;33.12
77247;SHT35;66279;42.820;23.374;2023-03-31T15:25:15;20.68;33.70
77247;SHT35;66279;42.820;23.374;2023-03-31T15:27:48;20.67;34.95
77247;SHT35;66279;42.820;23.374;2023-03-31T15:30:18;20.69;34.46
77247;SHT35;66279;42.820;23.374;2023-03-31T15:32:44;20.50;35.59
77247;SHT35;66279;42.820;23.374;2023-03-31T15:35:23;20.69;34.80
77247;SHT35;66279;42.820;23.374;2023-03-31T15:37:51;20.77;34.51
77247;SHT35;66279;42.820;23.374;2023-03-31T15:40:48;20.63;34.54
77247;SHT35;66279;42.820;23.374;2023-03-31T15:45:52;20.17;34.82
77247;SHT35;66279;42.820;23.374;2023-03-31T15:53:50;19.93;34.82
77247;SHT35;66279;42.820;23.374;2023-03-31T15:56:33;19.92;35.11
77247;SHT35;66279;42.820;23.374;2023-03-31T15:59:02;19.83;35.31
77247;SHT35;66279;42.820;23.374;2023-03-31T16:01:43;19.75;35.76
77247;SHT35;66279;42.820;23.374;2023-03-31T16:04:12;19.59;36.04
77247;SHT35;66279;42.820;23.374;2023-03-31T16:06:43;19.38;35.98
77247;SHT35;66279;42.820;23.374;2023-03-31T16:09:16;19.11;36.54
77247;SHT35;66279;42.820;23.374;2023-03-31T16:11:46;19.06;36.39
77247;SHT35;66279;42.820;23.374;2023-03-31T16:14:30;19.10;36.44
77247;SHT35;66279;42.820;23.374;2023-03-31T16:17:11;19.01;36.68
77247;SHT35;66279;42.820;23.374;2023-03-31T16:19:39;18.97;36.62
77247;SHT35;66279;42.820;23.374;2023-03-31T16:22:06;18.93;36.84
77247;SHT35;66279;42.820;23.374;2023-03-31T16:24:33;18.86;36.72
77247;SHT35;66279;42.820;23.374;2023-03-31T16:27:01;18.77;37.93
77247;SHT35;66279;42.820;23.374;2023-03-31T16:29:32;18.38;38.65
77247;SHT35;66279;42.820;23.374;2023-03-31T16:32:15;18.09;39.64
77247;SHT35;66279;42.820;23.374;2023-03-31T16:35:00;17.92;39.52
77247;SHT35;66279;42.820;23.374;2023-03-31T16:37:26;17.75;39.49
77247;SHT35;66279;42.820;23.374;2023-03-31T16:39:52;17.71;40.22
77247;SHT35;66279;42.820;23.374;2023-03-31T16:42:18;17.63;41.32
77247;SHT35;66279;42.820;23.374;2023-03-31T16:44:44;17.12;43.51
77247;SHT35;66279;42.820;23.374;2023-03-31T16:47:11;16.99;42.66
77247;SHT35;66279;42.820;23.374;2023-03-31T16:49:37;16.89;43.25
77247;SHT35;66279;42.820;23.374;2023-03-31T16:52:03;16.16;44.96
77247;SHT35;66279;42.820;23.374;2023-03-31T16:54:30;15.68;46.24
77247;SHT35;66279;42.820;23.374;2023-03-31T16:56:56;15.55;46.32
77247;SHT35;66279;42.820;23.374;2023-03-31T16:59:22;15.52;45.81
77247;SHT35;66279;42.820;23.374;2023-03-31T17:01:47;15.20;46.95
77247;SHT35;66279;42.820;23.374;2023-03-31T17:04:13;14.79;48.54
77247;SHT35;66279;42.820;23.374;2023-03-31T17:06:39;14.35;50.43
77247;SHT35;66279;42.820;23.374;2023-03-31T17:09:04;14.24;49.56
77247;SHT35;66279;42.820;23.374;2023-03-31T17:11:30;14.08;49.71
77247;SHT35;66279;42.820;23.374;2023-03-31T17:13:56;13.92;49.83
77247;SHT35;66279;42.820;23.374;2023-03-31T17:16:21;13.87;48.27
77247;SHT35;66279;42.820;23.374;2023-03-31T17:18:47;13.88;50.31
77247;SHT35;66279;42.820;23.374;2023-03-31T17:21:15;13.80;49.77
77247;SHT35;66279;42.820;23.374;2023-03-31T17:23:44;13.87;49.34
77247;SHT35;66279;42.820;23.374;2023-03-31T17:26:11;13.75;49.69
77247;SHT35;66279;42.820;23.374;2023-03-31T17:28:37;13.60;49.82
77247;SHT35;66279;42.820;23.374;2023-03-31T17:31:11;13.27;51.67
77247;SHT35;66279;42.820;23.374;2023-03-31T17:33:37;13.03;52.16
77247;SHT35;66279;42.820;23.374;2023-03-31T17:36:03;12.85;53.59
77247;SHT35;66279;42.820;23.374;2023-03-31T17:38:28;12.65;53.55
77247;SHT35;66279;42.820;23.374;2023-03-31T17:40:54;12.54;54.05
77247;SHT35;66279;42.820;23.374;2023-03-31T17:43:20;12.44;54.08
77247;SHT35;66279;42.820;23.374;2023-03-31T17:45:46;12.36;53.97
77247;SHT35;66279;42.820;23.374;2023-03-31T17:48:11;12.23;54.23
77247;SHT35;66279;42.820;23.374;2023-03-31T17:50:37;12.12;55.13
77247;SHT35;66279;42.820;23.374;2023-03-31T17:53:03;12.10;54.37
77247;SHT35;66279;42.820;23.374;2023-03-31T17:55:35;12.02;54.81
77247;SHT35;66279;42.820;23.374;2023-03-31T17:58:02;11.96;54.80
77247;SHT35;66279;42.820;23.374;2023-03-31T18:00:28;11.93;54.93
77247;SHT35;66279;42.820;23.374;2023-03-31T18:02:54;11.89;55.74
77247;SHT35;66279;42.820;23.374;2023-03-31T18:05:19;11.76;56.21
77247;SHT35;66279;42.820;23.374;2023-03-31T18:07:45;11.71;56.66
77247;SHT35;66279;42.820;23.374;2023-03-31T18:10:11;11.68;57.11
77247;SHT35;66279;42.820;23.374;2023-03-31T18:12:37;11.59;56.64
77247;SHT35;66279;42.820;23.374;2023-03-31T18:15:04;11.48;56.31
77247;SHT35;66279;42.820;23.374;2023-03-31T18:17:31;11.39;56.82
77247;SHT35;66279;42.820;23.374;2023-03-31T18:19:57;11.39;56.36
77247;SHT35;66279;42.820;23.374;2023-03-31T18:22:23;11.38;56.28
77247;SHT35;66279;42.820;23.374;2023-03-31T18:24:50;11.35;57.51
77247;SHT35;66279;42.820;23.374;2023-03-31T18:27:15;11.35;58.11
77247;SHT35;66279;42.820;23.374;2023-03-31T18:29:41;11.22;57.73
77247;SHT35;66279;42.820;23.374;2023-03-31T18:32:07;11.13;58.20
77247;SHT35;66279;42.820;23.374;2023-03-31T18:34:33;10.97;58.40
77247;SHT35;66279;42.820;23.374;2023-03-31T18:37:01;10.87;58.27
77247;SHT35;66279;42.820;23.374;2023-03-31T18:39:26;10.84;58.85
77247;SHT35;66279;42.820;23.374;2023-03-31T18:41:52;10.77;59.76
77247;SHT35;66279;42.820;23.374;2023-03-31T18:44:18;10.66;59.68
77247;SHT35;66279;42.820;23.374;2023-03-31T18:46:45;10.50;60.34
77247;SHT35;66279;42.820;23.374;2023-03-31T18:49:11;10.41;59.58
77247;SHT35;66279;42.820;23.374;2023-03-31T18:51:38;10.32;60.77
77247;SHT35;66279;42.820;23.374;2023-03-31T18:54:04;10.25;60.80
77247;SHT35;66279;42.820;23.374;2023-03-31T18:56:29;10.21;61.67
77247;SHT35;66279;42.820;23.374;2023-03-31T18:58:55;10.22;60.82
77247;SHT35;66279;42.820;23.374;2023-03-31T19:01:22;10.29;60.62
77247;SHT35;66279;42.820;23.374;2023-03-31T19:03:48;10.24;62.55
77247;SHT35;66279;42.820;23.374;2023-03-31T19:06:14;10.18;61.48
77247;SHT35;66279;42.820;23.374;2023-03-31T19:08:42;10.04;62.39
77247;SHT35;66279;42.820;23.374;2023-03-31T19:11:10;9.97;62.66
77247;SHT35;66279;42.820;23.374;2023-03-31T19:13:37;9.93;63.43
77247;SHT35;66279;42.820;23.374;2023-03-31T19:16:04;9.81;63.26
77247;SHT35;66279;42.820;23.374;2023-03-31T19:18:29;9.81;64.64
77247;SHT35;66279;42.820;23.374;2023-03-31T19:20:57;9.87;63.55
77247;SHT35;66279;42.820;23.374;2023-03-31T19:23:24;9.90;62.85
77247;SHT35;66279;42.820;23.374;2023-03-31T19:25:54;9.91;62.80
77247;SHT35;66279;42.820;23.374;2023-03-31T19:28:20;9.90;62.44
77247;SHT35;66279;42.820;23.374;2023-03-31T19:30:51;9.83;62.81
77247;SHT35;66279;42.820;23.374;2023-03-31T19:33:17;9.70;62.78
77247;SHT35;66279;42.820;23.374;2023-03-31T19:35:45;9.63;63.82
77247;SHT35;66279;42.820;23.374;2023-03-31T19:38:11;9.60;64.65
77247;SHT35;66279;42.820;23.374;2023-03-31T19:40:38;9.57;65.10
77247;SHT35;66279;42.820;23.374;2023-03-31T19:43:04;9.58;65.46
77247;SHT35;66279;42.820;23.374;2023-03-31T19:45:30;9.58;64.93
77247;SHT35;66279;42.820;23.374;2023-03-31T19:47:55;9.61;64.72
77247;SHT35;66279;42.820;23.374;2023-03-31T19:50:22;9.64;65.30
77247;SHT35;66279;42.820;23.374;2023-03-31T19:52:47;9.57;65.46
77247;SHT35;66279;42.820;23.374;2023-03-31T19:55:14;9.44;65.61
77247;SHT35;66279;42.820;23.374;2023-03-31T19:57:40;9.39;66.07
77247;SHT35;66279;42.820;23.374;2023-03-31T20:00:06;9.35;66.54
77247;SHT35;66279;42.820;23.374;2023-03-31T20:02:33;9.42;65.63
77247;SHT35;66279;42.820;23.374;2023-03-31T20:04:59;9.46;66.58
77247;SHT35;66279;42.820;23.374;2023-03-31T20:07:24;9.44;66.26
77247;SHT35;66279;42.820;23.374;2023-03-31T20:09:50;9.48;65.66
77247;SHT35;66279;42.820;23.374;2023-03-31T20:12:17;9.50;66.24
77247;SHT35;66279;42.820;23.374;2023-03-31T20:14:42;9.48;65.87
77247;SHT35;66279;42.820;23.374;2023-03-31T20:17:08;9.48;65.42
77247;SHT35;66279;42.820;23.374;2023-03-31T20:19:34;9.51;65.70
77247;SHT35;66279;42.820;23.374;2023-03-31T20:22:00;9.50;65.73
77247;SHT35;66279;42.820;23.374;2023-03-31T20:24:26;9.48;65.08
77247;SHT35;66279;42.820;23.374;2023-03-31T20:26:52;9.47;66.65
77247;SHT35;66279;42.820;23.374;2023-03-31T20:29:18;9.43;66.38
77247;SHT35;66279;42.820;23.374;2023-03-31T20:31:44;9.37;67.28
77247;SHT35;66279;42.820;23.374;2023-03-31T20:34:14;9.29;66.65
77247;SHT35;66279;42.820;23.374;2023-03-31T20:36:43;9.26;67.07
77247;SHT35;66279;42.820;23.374;2023-03-31T20:39:09;9.25;66.03
77247;SHT35;66279;42.820;23.374;2023-03-31T20:41:35;9.20;66.97
77247;SHT35;66279;42.820;23.374;2023-03-31T20:44:05;9.18;65.71
77247;SHT35;66279;42.820;23.374;2023-03-31T20:46:32;9.12;66.77
77247;SHT35;66279;42.820;23.374;2023-03-31T20:48:58;9.06;66.37
77247;SHT35;66279;42.820;23.374;2023-03-31T20:51:30;8.95;66.34
77247;SHT35;66279;42.820;23.374;2023-03-31T20:53:57;8.89;67.97
77247;SHT35;66279;42.820;23.374;2023-03-31T20:56:29;8.84;68.10
77247;SHT35;66279;42.820;23.374;2023-03-31T20:58:55;8.79;67.81
77247;SHT35;66279;42.820;23.374;2023-03-31T21:01:27;8.67;68.65
77247;SHT35;66279;42.820;23.374;2023-03-31T21:03:54;8.57;68.62
77247;SHT35;66279;42.820;23.374;2023-03-31T21:06:29;8.50;68.44
77247;SHT35;66279;42.820;23.374;2023-03-31T21:08:57;8.48;68.51
77247;SHT35;66279;42.820;23.374;2023-03-31T21:11:23;8.44;69.01
77247;SHT35;66279;42.820;23.374;2023-03-31T21:13:49;8.40;69.81
77247;SHT35;66279;42.820;23.374;2023-03-31T21:16:15;8.37;69.65
77247;SHT35;66279;42.820;23.374;2023-03-31T21:18:42;8.30;70.15
77247;SHT35;66279;42.820;23.374;2023-03-31T21:21:10;8.20;70.14
77247;SHT35;66279;42.820;23.374;2023-03-31T21:23:37;8.14;70.37
77247;SHT35;66279;42.820;23.374;2023-03-31T21:26:04;8.10;70.03
77247;SHT35;66279;42.820;23.374;2023-03-31T21:28:33;8.13;70.30
77247;SHT35;66279;42.820;23.374;2023-03-31T21:31:07;8.13;69.58
77247;SHT35;66279;42.820;23.374;2023-03-31T21:33:34;8.12;69.74
77247;SHT35;66279;42.820;23.374;2023-03-31T21:36:02;8.12;70.80
77247;SHT35;66279;42.820;23.374;2023-03-31T21:38:27;8.07;70.78
77247;SHT35;66279;42.820;23.374;2023-03-31T21:40:53;8.05;70.98
77247;SHT35;66279;42.820;23.374;2023-03-31T21:43:23;7.99;71.35
77247;SHT35;66279;42.820;23.374;2023-03-31T21:45:51;8.02;71.39
77247;SHT35;66279;42.820;23.374;2023-03-31T21:48:21;8.09;70.29
77247;SHT35;66279;42.820;23.374;2023-03-31T21:50:49;8.06;70.68
77247;SHT35;66279;42.820;23.374;2023-03-31T21:53:16;8.00;70.72
77247;SHT35;66279;42.820;23.374;2023-03-31T21:55:42;7.92;70.88
77247;SHT35;66279;42.820;23.374;2023-03-31T21:58:09;7.90;70.97
77247;SHT35;66279;42.820;23.374;2023-03-31T22:00:34;7.92;71.11
77247;SHT35;66279;42.820;23.374;2023-03-31T22:03:00;7.89;70.84
77247;SHT35;66279;42.820;23.374;2023-03-31T22:05:26;7.83;71.58
77247;SHT35;66279;42.820;23.374;2023-03-31T22:07:51;7.82;71.34
77247;SHT35;66279;42.820;23.374;2023-03-31T22:10:17;7.66;70.65
77247;SHT35;66279;42.820;23.374;2023-03-31T22:12:43;7.43;71.83
77247;SHT35;66279;42.820;23.374;2023-03-31T22:15:09;7.35;71.29
77247;SHT35;66279;42.820;23.374;2023-03-31T22:17:35;7.26;71.80
77247;SHT35;66279;42.820;23.374;2023-03-31T22:20:00;7.21;71.79
77247;SHT35;66279;42.820;23.374;2023-03-31T22:22:26;7.14;73.17
77247;SHT35;66279;42.820;23.374;2023-03-31T22:24:52;7.07;73.04
77247;SHT35;66279;42.820;23.374;2023-03-31T22:27:17;7.06;73.46
77247;SHT35;66279;42.820;23.374;2023-03-31T22:29:43;7.07;73.13
77247;SHT35;66279;42.820;23.374;2023-03-31T22:32:09;7.06;73.01
77247;SHT35;66279;42.820;23.374;2023-03-31T22:34:34;7.06;73.38
77247;SHT35;66279;42.820;23.374;2023-03-31T22:37:00;7.03;73.65
77247;SHT35;66279;42.820;23.374;2023-03-31T22:39:25;7.01;73.44
77247;SHT35;66279;42.820;23.374;2023-03-31T22:41:51;7.07;72.82
77247;SHT35;66279;42.820;23.374;2023-03-31T22:44:17;7.11;72.58
77247;SHT35;66279;42.820;23.374;2023-03-31T22:46:43;7.10;74.12
77247;SHT35;66279;42.820;23.374;2023-03-31T22:49:13;7.07;73.68
77247;SHT35;66279;42.820;23.374;2023-03-31T22:51:39;7.10;74.03
77247;SHT35;66279;42.820;23.374;2023-03-31T22:54:06;7.11;73.24
77247;SHT35;66279;42.820;23.374;2023-03-31T22:56:32;7.06;73.58
77247;SHT35;66279;42.820;23.374;2023-03-31T22:58:58;6.90;73.98
77247;SHT35;66279;42.820;23.374;2023-03-31T23:01:23;6.77;74.33
77247;SHT35;66279;42.820;23.374;2023-03-31T23:03:50;6.71;74.81
77247;SHT35;66279;42.820;23.374;2023-03-31T23:06:16;6.66;74.19
77247;SHT35;66279;42.820;23.374;2023-03-31T23:08:42;6.66;74.31
77247;SHT35;66279;42.820;23.374;2023-03-31T23:11:11;6.56;74.24
77247;SHT35;66279;42.820;23.374;2023-03-31T23:13:37;6.49;74.75
77247;SHT35;66279;42.820;23.374;2023-03-31T23:16:09;6.37;74.87
77247;SHT35;66279;42.820;23.374;2023-03-31T23:18:35;6.39;74.60
77247;SHT35;66279;42.820;23.374;2023-03-31T23:21:04;6.41;75.70
77247;SHT35;66279;42.820;23.374;2023-03-31T23:23:31;6.46;75.35
77247;SHT35;66279;42.820;23.374;2023-03-31T23:26:04;6.53;75.55
77247;SHT35;66279;42.820;23.374;2023-03-31T23:28:32;6.55;75.74
77247;SHT35;66279;42.820;23.374;2023-03-31T23:30:58;6.55;75.97
77247;SHT35;66279;42.820;23.374;2023-03-31T23:33:25;6.68;75.32
77247;SHT35;66279;42.820;23.374;2023-03-31T23:35:51;6.73;76.14
77247;SHT35;66279;42.820;23.374;2023-03-31T23:38:18;6.80;75.75
77247;SHT35;66279;42.820;23.374;2023-03-31T23:40:44;6.93;75.87
77247;SHT35;66279;42.820;23.374;2023-03-31T23:43:14;6.96;75.98
77247;SHT35;66279;42.820;23.374;2023-03-31T23:45:41;7.01;76.59
77247;SHT35;66279;42.820;23.374;2023-03-31T23:48:06;7.08;76.44
77247;SHT35;66279;42.820;23.374;2023-03-31T23:50:32;7.16;75.45
77247;SHT35;66279;42.820;23.374;2023-03-31T23:52:59;7.23;75.16
77247;SHT35;66279;42.820;23.374;2023-03-31T23:55:26;7.26;75.83
77247;SHT35;66279;42.820;23.374;2023-03-31T23:57:53;7.27;75.35
